createdAt,value
2022-07-25T00:00:44.901Z,72.18
2022-07-25T00:03:18.536Z,73.29
2022-07-25T00:05:50.074Z,72.63
2022-07-25T00:08:21.007Z,72.10
2022-07-25T00:10:52.043Z,72.42
2022-07-25T00:13:22.985Z,72.00
2022-07-25T00:15:54.223Z,72.11
2022-07-25T00:18:25.212Z,72.23
2022-07-25T00:20:56.091Z,72.29
2022-07-25T00:23:27.031Z,72.58
2022-07-25T00:25:57.862Z,72.99
2022-07-25T00:28:28.863Z,73.01
2022-07-25T00:30:59.692Z,70.62
2022-07-25T00:33:30.572Z,69.89
2022-07-25T00:36:01.619Z,69.51
2022-07-25T00:38:32.457Z,69.14
2022-07-25T00:41:04.567Z,69.06
2022-07-25T00:43:34.853Z,72.04
2022-07-25T00:46:05.673Z,69.93
2022-07-25T00:48:39.941Z,69.50
2022-07-25T00:51:11.448Z,68.95
2022-07-25T00:53:42.318Z,69.40
2022-07-25T00:56:13.323Z,68.66
2022-07-25T00:58:44.310Z,68.89
2022-07-25T01:01:15.301Z,68.03
2022-07-25T01:03:46.287Z,68.38
2022-07-25T01:06:17.129Z,68.00
2022-07-25T01:08:49.129Z,67.83
2022-07-25T01:11:19.516Z,69.31
2022-07-25T01:13:50.487Z,67.84
2022-07-25T01:16:21.601Z,67.23
2022-07-25T01:18:52.619Z,67.14
2022-07-25T01:21:25.119Z,66.91
2022-07-25T01:23:55.979Z,66.46
2022-07-25T01:26:26.683Z,66.77
2022-07-25T01:28:58.690Z,66.45
2022-07-25T01:31:29.120Z,67.60
2022-07-25T01:34:00.046Z,65.92
2022-07-25T01:36:31.054Z,66.06
2022-07-25T01:39:03.078Z,65.95
2022-07-25T01:41:33.910Z,65.46
2022-07-25T01:44:04.949Z,65.05
2022-07-25T01:46:36.319Z,65.41
2022-07-25T01:49:07.510Z,65.29
2022-07-25T01:51:38.522Z,65.05
2022-07-25T01:54:10.534Z,64.64
2022-07-25T01:56:47.041Z,65.00
2022-07-25T01:59:19.341Z,64.72
2022-07-25T02:01:50.702Z,64.53
2022-07-25T02:04:21.806Z,64.45
2022-07-25T02:06:53.998Z,64.04
2022-07-25T02:09:24.986Z,63.89
2022-07-25T02:11:57.972Z,64.35
2022-07-25T02:14:29.254Z,64.11
2022-07-25T02:17:00.071Z,63.93
2022-07-25T02:19:30.975Z,64.01
2022-07-25T02:22:01.946Z,63.54
2022-07-25T02:24:32.930Z,63.44
2022-07-25T02:27:03.768Z,63.30
2022-07-25T02:29:34.649Z,63.30
2022-07-25T02:32:05.728Z,63.22
2022-07-25T02:34:36.508Z,62.80
2022-07-25T02:37:07.408Z,62.94
2022-07-25T02:39:38.743Z,62.92
2022-07-25T02:42:09.968Z,63.06
2022-07-25T02:44:40.832Z,63.07
2022-07-25T02:47:11.676Z,62.71
2022-07-25T02:49:42.615Z,62.48
2022-07-25T02:52:13.579Z,62.82
2022-07-25T02:54:44.688Z,62.58
2022-07-25T02:57:15.563Z,62.55
2022-07-25T02:59:46.612Z,62.44
2022-07-25T03:02:17.490Z,62.56
2022-07-25T03:04:49.201Z,62.08
2022-07-25T03:07:20.096Z,62.23
2022-07-25T03:09:51.044Z,61.95
2022-07-25T03:12:22.172Z,62.14
2022-07-25T03:14:53.054Z,61.97
2022-07-25T03:17:24.013Z,62.13
2022-07-25T03:19:54.890Z,61.93
2022-07-25T03:22:26.666Z,61.74
2022-07-25T03:24:57.558Z,61.83
2022-07-25T03:27:29.726Z,62.02
2022-07-25T03:30:00.697Z,61.63
2022-07-25T03:32:31.789Z,61.74
2022-07-25T03:35:02.807Z,61.58
2022-07-25T03:37:33.721Z,61.48
2022-07-25T03:40:04.659Z,61.15
2022-07-25T03:42:35.794Z,61.38
2022-07-25T03:45:07.653Z,61.07
2022-07-25T03:47:38.632Z,61.25
2022-07-25T03:50:09.861Z,61.38
2022-07-25T03:52:40.729Z,61.22
2022-07-25T03:55:12.852Z,61.03
2022-07-25T03:57:43.629Z,60.97
2022-07-25T04:00:14.773Z,60.93
2022-07-25T04:02:45.698Z,60.91
2022-07-25T04:05:16.580Z,61.19
2022-07-25T04:07:47.413Z,60.67
2022-07-25T04:10:19.248Z,60.78
2022-07-25T04:12:49.945Z,61.02
2022-07-25T04:15:20.727Z,60.92
2022-07-25T04:17:51.494Z,60.76
2022-07-25T04:20:22.986Z,60.52
2022-07-25T04:22:53.766Z,60.54
2022-07-25T04:25:24.637Z,60.42
2022-07-25T04:27:55.454Z,60.38
2022-07-25T04:30:26.442Z,60.47
2022-07-25T04:32:57.219Z,60.26
2022-07-25T04:35:27.985Z,60.12
2022-07-25T04:37:58.835Z,60.17
2022-07-25T04:40:30.150Z,60.09
2022-07-25T04:43:00.939Z,60.15
2022-07-25T04:45:31.711Z,60.08
2022-07-25T04:48:03.079Z,59.92
2022-07-25T04:50:34.009Z,59.95
2022-07-25T04:53:05.442Z,59.86
2022-07-25T04:55:36.870Z,59.95
2022-07-25T04:58:07.644Z,60.32
2022-07-25T05:00:38.758Z,59.66
2022-07-25T05:03:09.854Z,59.79
2022-07-25T05:05:40.703Z,59.66
2022-07-25T05:08:11.771Z,59.50
2022-07-25T05:10:42.643Z,59.35
2022-07-25T05:13:13.495Z,59.41
2022-07-25T05:15:45.578Z,59.32
2022-07-25T05:18:17.169Z,59.35
2022-07-25T05:20:48.026Z,59.26
2022-07-25T05:23:19.229Z,59.33
2022-07-25T05:25:51.152Z,59.51
2022-07-25T05:28:22.206Z,59.46
2022-07-25T05:30:53.103Z,59.22
2022-07-25T05:33:23.971Z,59.14
2022-07-25T05:35:54.951Z,59.02
2022-07-25T05:38:25.823Z,59.00
2022-07-25T05:40:57.583Z,59.10
2022-07-25T05:43:28.385Z,58.79
2022-07-25T05:46:07.139Z,58.59
2022-07-25T05:48:38.121Z,58.69
2022-07-25T05:51:09.030Z,58.83
2022-07-25T05:53:40.427Z,58.72
2022-07-25T05:56:11.925Z,58.60
2022-07-25T05:58:43.980Z,58.46
2022-07-25T06:01:16.344Z,58.39
2022-07-25T06:03:47.505Z,58.32
2022-07-25T06:06:18.324Z,58.34
2022-07-25T06:08:49.472Z,58.00
2022-07-25T06:11:20.213Z,58.25
2022-07-25T06:13:51.706Z,58.67
2022-07-25T06:16:22.629Z,58.14
2022-07-25T06:18:53.536Z,57.79
2022-07-25T06:21:24.543Z,58.08
2022-07-25T06:23:55.452Z,58.24
2022-07-25T06:26:27.038Z,58.06
2022-07-25T06:28:57.929Z,57.98
2022-07-25T06:31:28.830Z,57.99
2022-07-25T06:33:59.559Z,57.93
2022-07-25T06:36:32.520Z,58.01
2022-07-25T06:39:04.963Z,57.78
2022-07-25T06:41:36.338Z,57.67
2022-07-25T06:44:07.710Z,57.66
2022-07-25T06:46:38.963Z,57.86
2022-07-25T06:49:09.897Z,58.10
2022-07-25T06:51:40.699Z,57.85
2022-07-25T06:54:11.756Z,57.59
2022-07-25T06:56:42.523Z,57.75
2022-07-25T06:59:13.648Z,57.61
2022-07-25T07:01:48.198Z,57.62
2022-07-25T07:04:21.900Z,57.50
2022-07-25T07:06:52.788Z,57.16
2022-07-25T07:09:23.576Z,57.51
2022-07-25T07:11:54.435Z,57.32
2022-07-25T07:14:25.243Z,57.41
2022-07-25T07:16:56.174Z,57.37
2022-07-25T07:19:27.020Z,57.77
2022-07-25T07:21:58.133Z,57.76
2022-07-25T07:24:29.773Z,57.58
2022-07-25T07:27:00.893Z,57.45
2022-07-25T07:29:31.627Z,57.39
2022-07-25T07:32:03.124Z,57.69
2022-07-25T07:34:34.572Z,57.16
2022-07-25T07:37:05.637Z,57.36
2022-07-25T07:39:36.740Z,57.77
2022-07-25T07:42:07.602Z,57.54
2022-07-25T07:44:38.431Z,57.03
2022-07-25T07:47:14.344Z,56.97
2022-07-25T07:49:50.033Z,56.99
2022-07-25T07:52:21.108Z,57.23
2022-07-25T07:55:14.548Z,56.92
2022-07-25T07:57:45.433Z,56.93
2022-07-25T08:00:16.983Z,56.98
2022-07-25T08:02:50.392Z,57.18
2022-07-25T08:05:41.616Z,57.31
2022-07-25T08:08:14.534Z,56.95
2022-07-25T08:10:47.735Z,57.33
2022-07-25T08:13:30.371Z,56.76
2022-07-25T08:16:03.592Z,57.40
2022-07-25T08:18:35.423Z,57.41
2022-07-25T08:21:07.995Z,57.42
2022-07-25T08:23:40.535Z,57.40
2022-07-25T08:26:11.501Z,57.38
2022-07-25T08:28:43.128Z,57.67
2022-07-25T08:31:14.060Z,57.11
2022-07-25T08:33:45.214Z,57.28
2022-07-25T08:36:16.154Z,57.54
2022-07-25T08:38:47.263Z,57.69
2022-07-25T08:41:18.146Z,57.69
2022-07-25T08:43:56.501Z,57.47
2022-07-25T08:46:27.447Z,58.19
2022-07-25T08:48:59.113Z,57.76
2022-07-25T08:51:30.862Z,57.84
2022-07-25T08:54:02.830Z,57.50
2022-07-25T08:56:33.593Z,57.72
2022-07-25T08:59:04.503Z,57.77
2022-07-25T09:01:35.479Z,57.55
2022-07-25T09:04:07.662Z,58.15
2022-07-25T09:06:39.272Z,57.76
2022-07-25T09:09:10.363Z,57.68
2022-07-25T09:11:41.532Z,57.92
2022-07-25T09:14:15.171Z,57.97
2022-07-25T09:16:47.036Z,58.19
2022-07-25T09:19:23.651Z,58.12
2022-07-25T09:22:10.199Z,58.21
2022-07-25T09:24:47.772Z,58.19
2022-07-25T09:27:19.880Z,58.60
2022-07-25T09:29:50.746Z,58.25
2022-07-25T09:32:23.973Z,58.33
2022-07-25T09:34:54.789Z,58.30
2022-07-25T09:37:29.371Z,58.41
2022-07-25T09:40:00.364Z,58.92
2022-07-25T09:42:34.812Z,59.03
2022-07-25T09:45:13.081Z,58.62
2022-07-25T09:47:59.828Z,58.86
2022-07-25T09:50:32.715Z,59.01
2022-07-25T09:53:04.903Z,59.27
2022-07-25T09:55:35.956Z,58.93
2022-07-25T09:58:06.792Z,59.37
2022-07-25T10:00:38.049Z,59.39
2022-07-25T10:03:20.594Z,59.32
2022-07-25T10:06:04.439Z,59.44
2022-07-25T10:08:43.426Z,59.44
2022-07-25T10:11:24.347Z,59.28
2022-07-25T10:13:56.663Z,59.41
2022-07-25T10:16:29.416Z,59.28
2022-07-25T10:19:01.425Z,59.46
2022-07-25T10:21:32.364Z,59.59
2022-07-25T10:24:12.351Z,59.37
2022-07-25T10:26:54.725Z,60.06
2022-07-25T10:29:36.963Z,59.96
2022-07-25T10:32:11.138Z,60.73
2022-07-25T10:34:42.512Z,59.80
2022-07-25T10:37:20.865Z,60.31
2022-07-25T10:39:51.791Z,60.29
2022-07-25T10:42:26.039Z,60.04
2022-07-25T10:45:01.068Z,59.74
2022-07-25T10:47:31.902Z,60.18
2022-07-25T10:50:19.097Z,60.40
2022-07-25T10:53:09.450Z,60.45
2022-07-25T10:55:40.464Z,60.26
2022-07-25T10:58:18.639Z,60.20
2022-07-25T11:00:49.805Z,60.28
2022-07-25T11:03:22.252Z,60.42
2022-07-25T11:05:56.302Z,60.80
2022-07-25T11:08:35.228Z,61.03
2022-07-25T11:11:06.205Z,60.76
2022-07-25T11:13:44.786Z,60.77
2022-07-25T11:16:16.001Z,60.71
2022-07-25T11:18:46.882Z,60.93
2022-07-25T11:21:17.854Z,61.17
2022-07-25T11:23:53.970Z,61.42
2022-07-25T11:26:24.658Z,61.72
2022-07-25T11:28:55.646Z,61.84
2022-07-25T11:31:26.738Z,61.88
2022-07-25T11:33:57.883Z,62.26
2022-07-25T11:36:29.144Z,62.46
2022-07-25T11:39:00.178Z,62.19
2022-07-25T11:41:32.342Z,62.25
2022-07-25T11:44:03.109Z,62.40
2022-07-25T11:46:46.625Z,62.83
2022-07-25T11:49:17.616Z,62.43
2022-07-25T11:51:48.765Z,62.54
2022-07-25T11:54:20.197Z,62.62
2022-07-25T11:56:51.120Z,64.05
2022-07-25T11:59:21.794Z,62.80
2022-07-25T12:01:52.961Z,62.96
2022-07-25T12:04:23.961Z,63.26
2022-07-25T12:07:05.120Z,64.17
2022-07-25T12:09:35.945Z,64.50
2022-07-25T12:12:07.412Z,65.33
2022-07-25T12:14:49.570Z,65.87
2022-07-25T12:17:21.062Z,66.50
2022-07-25T12:19:52.101Z,66.74
2022-07-25T12:22:23.032Z,66.97
2022-07-25T12:24:54.186Z,67.53
2022-07-25T12:27:25.057Z,67.88
2022-07-25T12:29:55.901Z,68.23
2022-07-25T12:32:26.731Z,68.16
2022-07-25T12:34:57.646Z,68.65
2022-07-25T12:37:29.005Z,68.94
2022-07-25T12:40:00.754Z,68.47
2022-07-25T12:42:31.604Z,69.15
2022-07-25T12:45:02.888Z,69.01
2022-07-25T12:47:33.671Z,69.21
2022-07-25T12:50:06.220Z,69.67
2022-07-25T12:52:37.257Z,69.60
2022-07-25T12:55:10.373Z,69.45
2022-07-25T12:57:41.809Z,70.17
2022-07-25T13:00:16.419Z,69.98
2022-07-25T13:02:47.873Z,70.13
2022-07-25T13:05:18.905Z,70.27
2022-07-25T13:07:53.309Z,70.52
2022-07-25T13:10:24.215Z,70.47
2022-07-25T13:12:55.579Z,70.76
2022-07-25T13:15:29.981Z,70.67
2022-07-25T13:18:01.032Z,71.10
2022-07-25T13:20:32.987Z,70.90
2022-07-25T13:23:04.071Z,70.41
2022-07-25T13:25:35.954Z,71.21
2022-07-25T13:28:09.629Z,71.10
2022-07-25T13:30:42.028Z,71.14
2022-07-25T13:33:12.905Z,71.31
2022-07-25T13:35:43.728Z,70.84
2022-07-25T13:38:14.680Z,70.83
2022-07-25T13:40:45.480Z,70.58
2022-07-25T13:43:16.584Z,70.43
2022-07-25T13:45:48.461Z,70.58
2022-07-25T13:48:29.461Z,70.51
2022-07-25T13:51:01.658Z,70.85
2022-07-25T13:53:32.540Z,70.92
2022-07-25T13:56:03.399Z,71.04
2022-07-25T13:58:34.291Z,71.17
2022-07-25T14:01:05.640Z,71.02
2022-07-25T14:03:40.370Z,71.05
2022-07-25T14:06:15.338Z,71.14
2022-07-25T14:08:46.513Z,71.34
2022-07-25T14:11:17.329Z,71.05
2022-07-25T14:13:48.510Z,70.97
2022-07-25T14:16:21.026Z,70.48
2022-07-25T14:18:52.492Z,70.62
2022-07-25T14:21:23.501Z,71.24
2022-07-25T14:23:54.495Z,70.95
2022-07-25T14:26:25.279Z,69.87
2022-07-25T14:28:57.657Z,68.55
2022-07-25T14:31:28.833Z,67.33
2022-07-25T14:33:59.808Z,66.72
2022-07-25T14:36:30.641Z,66.20
2022-07-25T14:39:01.793Z,65.13
2022-07-25T14:41:32.775Z,64.23
2022-07-25T14:44:03.758Z,63.35
2022-07-25T14:46:34.940Z,62.51
2022-07-25T14:49:06.159Z,61.58
2022-07-25T14:51:37.270Z,60.55
2022-07-25T14:54:08.074Z,60.39
2022-07-25T14:56:40.112Z,59.60
2022-07-25T14:59:10.753Z,59.28
2022-07-25T15:01:42.748Z,58.21
2022-07-25T15:04:13.797Z,57.88
2022-07-25T15:06:44.805Z,57.56
2022-07-25T15:09:16.206Z,56.82
2022-07-25T15:11:47.299Z,56.17
2022-07-25T15:14:18.242Z,56.09
2022-07-25T15:16:49.182Z,56.00
2022-07-25T15:19:20.665Z,55.21
2022-07-25T15:21:51.537Z,54.70
2022-07-25T15:24:27.158Z,54.77
2022-07-25T15:27:00.519Z,54.59
2022-07-25T15:29:32.167Z,53.85
2022-07-25T15:32:05.232Z,53.86
2022-07-25T15:34:36.247Z,53.10
2022-07-25T15:37:07.242Z,53.00
2022-07-25T15:39:38.104Z,52.71
2022-07-25T15:42:09.089Z,51.69
2022-07-25T15:44:39.954Z,51.79
2022-07-25T15:47:10.912Z,52.10
2022-07-25T15:49:41.710Z,51.26
2022-07-25T15:52:12.787Z,53.15
2022-07-25T15:54:43.745Z,53.43
2022-07-25T15:57:14.667Z,53.97
2022-07-25T15:59:45.432Z,53.50
2022-07-25T16:02:16.646Z,54.55
2022-07-25T16:04:47.398Z,54.18
2022-07-25T16:07:18.146Z,53.58
2022-07-25T16:09:49.278Z,53.55
2022-07-25T16:12:28.204Z,52.86
2022-07-25T16:14:59.848Z,52.52
2022-07-25T16:17:30.703Z,52.25
2022-07-25T16:20:01.884Z,51.78
2022-07-25T16:22:32.655Z,51.60
2022-07-25T16:25:04.605Z,51.70
2022-07-25T16:27:35.405Z,51.53
2022-07-25T16:30:07.242Z,51.38
2022-07-25T16:32:38.850Z,51.29
2022-07-25T16:35:09.999Z,51.04
2022-07-25T16:37:41.949Z,51.00
2022-07-25T16:40:14.179Z,50.84
2022-07-25T16:42:44.866Z,51.21
2022-07-25T16:45:15.915Z,51.60
2022-07-25T16:47:58.674Z,50.87
2022-07-25T16:50:29.380Z,50.57
2022-07-25T16:53:00.213Z,50.28
2022-07-25T16:55:31.264Z,49.66
2022-07-25T16:58:02.001Z,49.47
2022-07-25T17:00:33.009Z,49.02
2022-07-25T17:03:04.092Z,48.56
2022-07-25T17:05:35.119Z,48.98
2022-07-25T17:08:06.161Z,48.56
2022-07-25T17:10:37.215Z,48.34
2022-07-25T17:13:07.949Z,48.23
2022-07-25T17:15:38.788Z,47.80
2022-07-25T17:18:09.521Z,47.93
2022-07-25T17:20:40.397Z,47.70
2022-07-25T17:23:11.201Z,47.64
2022-07-25T17:25:47.325Z,47.44
2022-07-25T17:28:21.275Z,47.64
2022-07-25T17:30:52.754Z,47.37
2022-07-25T17:33:23.659Z,47.44
2022-07-25T17:35:54.438Z,47.07
2022-07-25T17:38:27.671Z,47.39
2022-07-25T17:41:00.092Z,47.05
2022-07-25T17:43:30.914Z,47.08
2022-07-25T17:46:01.921Z,46.87
2022-07-25T17:48:32.788Z,46.96
2022-07-25T17:51:03.956Z,47.04
2022-07-25T17:53:34.849Z,46.20
2022-07-25T17:56:06.389Z,46.69
2022-07-25T17:58:37.671Z,46.62
2022-07-25T18:01:10.441Z,46.97
2022-07-25T18:03:41.493Z,46.90
2022-07-25T18:06:13.041Z,46.87
2022-07-25T18:08:44.637Z,46.55
2022-07-25T18:11:15.644Z,46.27
2022-07-25T18:13:46.525Z,46.93
2022-07-25T18:16:17.744Z,46.01
2022-07-25T18:18:48.777Z,46.22
2022-07-25T18:21:19.602Z,46.17
2022-07-25T18:23:50.531Z,45.70
2022-07-25T18:26:23.522Z,45.75
2022-07-25T18:28:54.291Z,46.06
2022-07-25T18:31:25.338Z,46.24
2022-07-25T18:33:56.227Z,45.78
2022-07-25T18:36:27.618Z,45.86
2022-07-25T18:39:00.345Z,45.78
2022-07-25T18:41:31.324Z,45.48
2022-07-25T18:44:02.457Z,45.97
2022-07-25T18:46:34.666Z,45.60
2022-07-25T18:49:06.373Z,45.37
2022-07-25T18:51:37.364Z,45.28
2022-07-25T18:54:08.703Z,45.62
2022-07-25T18:56:40.597Z,45.38
2022-07-25T18:59:11.546Z,45.35
2022-07-25T19:01:42.842Z,45.20
2022-07-25T19:04:13.809Z,45.44
2022-07-25T19:06:44.709Z,45.16
2022-07-25T19:09:15.701Z,45.49
2022-07-25T19:11:46.995Z,44.86
2022-07-25T19:14:17.939Z,45.39
2022-07-25T19:16:48.861Z,45.39
2022-07-25T19:19:19.979Z,45.46
2022-07-25T19:21:50.893Z,44.89
2022-07-25T19:24:21.704Z,44.85
2022-07-25T19:26:52.589Z,45.39
2022-07-25T19:29:23.423Z,44.99
2022-07-25T19:31:54.513Z,45.01
2022-07-25T19:34:25.664Z,44.71
2022-07-25T19:36:58.085Z,44.62
2022-07-25T19:39:29.221Z,45.28
2022-07-25T19:42:00.074Z,44.93
2022-07-25T19:44:30.828Z,45.40
2022-07-25T19:47:01.940Z,45.19
2022-07-25T19:49:32.967Z,44.84
2022-07-25T19:52:04.849Z,45.42
2022-07-25T19:54:35.906Z,44.96
2022-07-25T19:57:07.474Z,45.48
2022-07-25T19:59:38.824Z,45.12
2022-07-25T20:02:09.904Z,45.35
2022-07-25T20:04:40.813Z,44.73
2022-07-25T20:07:11.689Z,44.56
2022-07-25T20:09:42.661Z,45.00
2022-07-25T20:12:13.416Z,45.10
2022-07-25T20:14:44.451Z,45.37
2022-07-25T20:17:16.447Z,44.68
2022-07-25T20:19:47.193Z,44.87
2022-07-25T20:22:17.938Z,44.56
2022-07-25T20:24:48.667Z,44.65
2022-07-25T20:27:19.781Z,44.64
2022-07-25T20:29:51.138Z,45.19
2022-07-25T20:32:21.952Z,44.40
2022-07-25T20:34:54.354Z,44.46
2022-07-25T20:37:25.650Z,44.62
2022-07-25T20:39:57.134Z,45.02
2022-07-25T20:42:29.588Z,44.58
2022-07-25T20:45:00.309Z,44.82
2022-07-25T20:47:31.403Z,44.84
2022-07-25T20:50:03.047Z,44.46
2022-07-25T20:52:34.946Z,44.75
2022-07-25T20:55:06.674Z,44.57
2022-07-25T20:57:37.542Z,44.95
2022-07-25T21:00:09.009Z,44.59
2022-07-25T21:02:39.834Z,44.47
2022-07-25T21:05:11.284Z,44.97
2022-07-25T21:07:42.202Z,44.85
2022-07-25T21:10:15.553Z,44.89
2022-07-25T21:12:47.085Z,44.33
2022-07-25T21:15:17.853Z,44.88
2022-07-25T21:17:48.601Z,44.77
2022-07-25T21:20:19.662Z,44.15
2022-07-25T21:22:50.911Z,44.42
2022-07-25T21:25:21.712Z,44.83
2022-07-25T21:27:52.727Z,44.18
2022-07-25T21:30:23.452Z,44.27
2022-07-25T21:32:54.359Z,44.32
2022-07-25T21:35:25.438Z,44.58
2022-07-25T21:37:56.456Z,44.13
2022-07-25T21:40:27.617Z,44.20
2022-07-25T21:42:58.452Z,44.34
2022-07-25T21:45:31.521Z,44.63
2022-07-25T21:48:02.686Z,44.29
2022-07-25T21:50:43.651Z,43.82
2022-07-25T21:53:16.299Z,44.10
2022-07-25T21:55:47.264Z,44.45
2022-07-25T21:58:18.144Z,44.48
2022-07-25T22:00:48.947Z,44.91
2022-07-25T22:03:19.942Z,44.96
2022-07-25T22:05:51.212Z,45.09
2022-07-25T22:08:22.719Z,44.98
2022-07-25T22:10:54.493Z,45.06
2022-07-25T22:13:26.074Z,44.75
2022-07-25T22:15:56.778Z,44.66
2022-07-25T22:18:27.566Z,44.63
2022-07-25T22:21:00.674Z,44.53
2022-07-25T22:23:31.622Z,44.31
2022-07-25T22:26:02.542Z,44.43
2022-07-25T22:28:33.308Z,44.78
2022-07-25T22:31:04.024Z,44.98
2022-07-25T22:33:36.522Z,45.52
2022-07-25T22:36:08.032Z,45.42
2022-07-25T22:38:38.811Z,45.05
2022-07-25T22:41:09.601Z,45.08
2022-07-25T22:43:57.040Z,45.04
2022-07-25T22:46:31.422Z,45.36
2022-07-25T22:49:03.518Z,44.68
2022-07-25T22:51:34.380Z,44.49
2022-07-25T22:54:05.712Z,44.86
2022-07-25T22:56:36.576Z,44.35
2022-07-25T22:59:07.697Z,44.40
2022-07-25T23:01:39.241Z,44.64
2022-07-25T23:04:10.282Z,45.96
2022-07-25T23:06:41.137Z,46.89
2022-07-25T23:09:15.173Z,48.24
2022-07-25T23:11:46.007Z,55.59
2022-07-25T23:14:16.680Z,61.05
2022-07-25T23:17:07.173Z,64.37
2022-07-25T23:19:38.010Z,66.18
2022-07-25T23:22:09.071Z,67.06
2022-07-25T23:24:39.840Z,67.80
2022-07-25T23:27:11.148Z,67.74
2022-07-25T23:29:42.362Z,67.51
2022-07-25T23:32:13.181Z,68.39
2022-07-25T23:34:43.976Z,68.55
2022-07-25T23:37:14.767Z,68.80
2022-07-25T23:39:45.932Z,69.04
2022-07-25T23:42:16.785Z,67.75
2022-07-25T23:44:49.449Z,69.75
2022-07-25T23:47:26.696Z,69.67
2022-07-25T23:50:13.118Z,70.24
2022-07-25T23:52:43.977Z,69.74
2022-07-25T23:55:14.786Z,70.19
2022-07-25T23:57:49.579Z,70.57
